sensor_id;sensor_type;location;lat;lon;timestamp;P1;durP1;ratioP1;P2;durP2;ratioP2
69047;SDS011;56119;50.118;8.642;2022-12-13T00:02:18;63.93;;;31.33;;
69047;SDS011;56119;50.118;8.642;2022-12-13T00:04:44;65.63;;;31.27;;
69047;SDS011;56119;50.118;8.642;2022-12-13T00:07:10;63.57;;;31.60;;
69047;SDS011;56119;50.118;8.642;2022-12-13T00:09:36;66.07;;;32.47;;
69047;SDS011;56119;50.118;8.642;2022-12-13T00:12:02;65.40;;;32.50;;
69047;SDS011;56119;50.118;8.642;2022-12-13T00:14:28;68.97;;;32.27;;
69047;SDS011;56119;50.118;8.642;2022-12-13T00:16:56;68.73;;;32.50;;
69047;SDS011;56119;50.118;8.642;2022-12-13T00:19:22;66.63;;;32.87;;
69047;SDS011;56119;50.118;8.642;2022-12-13T00:21:48;67.67;;;32.80;;
69047;SDS011;56119;50.118;8.642;2022-12-13T00:24:14;69.97;;;32.07;;
69047;SDS011;56119;50.118;8.642;2022-12-13T00:26:41;70.80;;;33.10;;
69047;SDS011;56119;50.118;8.642;2022-12-13T00:29:07;70.37;;;30.77;;
69047;SDS011;56119;50.118;8.642;2022-12-13T00:31:33;68.70;;;30.60;;
69047;SDS011;56119;50.118;8.642;2022-12-13T00:34:00;66.33;;;31.97;;
69047;SDS011;56119;50.118;8.642;2022-12-13T00:36:26;68.93;;;30.87;;
69047;SDS011;56119;50.118;8.642;2022-12-13T00:38:52;157.33;;;72.10;;
69047;SDS011;56119;50.118;8.642;2022-12-13T00:41:24;72.10;;;32.90;;
69047;SDS011;56119;50.118;8.642;2022-12-13T00:43:50;71.37;;;32.00;;
69047;SDS011;56119;50.118;8.642;2022-12-13T00:46:18;65.77;;;32.20;;
69047;SDS011;56119;50.118;8.642;2022-12-13T00:48:47;64.67;;;32.23;;
69047;SDS011;56119;50.118;8.642;2022-12-13T00:51:13;69.50;;;32.60;;
69047;SDS011;56119;50.118;8.642;2022-12-13T00:53:39;67.63;;;32.23;;
69047;SDS011;56119;50.118;8.642;2022-12-13T00:56:09;66.37;;;32.00;;
69047;SDS011;56119;50.118;8.642;2022-12-13T00:58:36;70.00;;;32.73;;
69047;SDS011;56119;50.118;8.642;2022-12-13T01:01:06;67.60;;;31.93;;
69047;SDS011;56119;50.118;8.642;2022-12-13T01:03:32;64.67;;;30.80;;
69047;SDS011;56119;50.118;8.642;2022-12-13T01:05:59;72.30;;;31.63;;
69047;SDS011;56119;50.118;8.642;2022-12-13T01:08:25;70.97;;;32.73;;
69047;SDS011;56119;50.118;8.642;2022-12-13T01:10:51;71.97;;;32.77;;
69047;SDS011;56119;50.118;8.642;2022-12-13T01:13:18;70.20;;;32.20;;
69047;SDS011;56119;50.118;8.642;2022-12-13T01:15:44;69.17;;;32.50;;
69047;SDS011;56119;50.118;8.642;2022-12-13T01:18:10;65.83;;;30.27;;
69047;SDS011;56119;50.118;8.642;2022-12-13T01:20:36;67.27;;;30.53;;
69047;SDS011;56119;50.118;8.642;2022-12-13T01:23:03;67.10;;;31.03;;
69047;SDS011;56119;50.118;8.642;2022-12-13T01:25:29;74.17;;;34.37;;
69047;SDS011;56119;50.118;8.642;2022-12-13T01:27:57;73.13;;;32.27;;
69047;SDS011;56119;50.118;8.642;2022-12-13T01:30:23;68.17;;;30.93;;
69047;SDS011;56119;50.118;8.642;2022-12-13T01:32:49;68.10;;;31.70;;
69047;SDS011;56119;50.118;8.642;2022-12-13T01:35:15;73.27;;;30.70;;
69047;SDS011;56119;50.118;8.642;2022-12-13T01:37:41;65.30;;;30.50;;
69047;SDS011;56119;50.118;8.642;2022-12-13T01:40:07;65.97;;;29.90;;
69047;SDS011;56119;50.118;8.642;2022-12-13T01:42:36;71.47;;;31.90;;
69047;SDS011;56119;50.118;8.642;2022-12-13T01:50:05;67.53;;;28.30;;
69047;SDS011;56119;50.118;8.642;2022-12-13T01:52:32;63.07;;;29.83;;
69047;SDS011;56119;50.118;8.642;2022-12-13T01:54:59;66.80;;;29.83;;
69047;SDS011;56119;50.118;8.642;2022-12-13T01:57:25;67.67;;;30.20;;
69047;SDS011;56119;50.118;8.642;2022-12-13T01:59:51;65.67;;;30.50;;
69047;SDS011;56119;50.118;8.642;2022-12-13T02:02:19;66.77;;;30.00;;
69047;SDS011;56119;50.118;8.642;2022-12-13T02:04:54;64.00;;;28.90;;
69047;SDS011;56119;50.118;8.642;2022-12-13T02:07:25;69.93;;;30.87;;
69047;SDS011;56119;50.118;8.642;2022-12-13T02:09:54;60.83;;;28.83;;
69047;SDS011;56119;50.118;8.642;2022-12-13T02:12:21;63.80;;;29.03;;
69047;SDS011;56119;50.118;8.642;2022-12-13T02:14:47;64.57;;;28.57;;
69047;SDS011;56119;50.118;8.642;2022-12-13T02:22:45;65.87;;;29.17;;
69047;SDS011;56119;50.118;8.642;2022-12-13T02:35:25;64.33;;;29.57;;
69047;SDS011;56119;50.118;8.642;2022-12-13T02:40:48;61.27;;;27.93;;
69047;SDS011;56119;50.118;8.642;2022-12-13T02:45:49;64.27;;;27.23;;
69047;SDS011;56119;50.118;8.642;2022-12-13T02:48:17;65.40;;;28.97;;
69047;SDS011;56119;50.118;8.642;2022-12-13T02:50:45;58.13;;;26.90;;
69047;SDS011;56119;50.118;8.642;2022-12-13T02:53:11;59.63;;;27.80;;
69047;SDS011;56119;50.118;8.642;2022-12-13T02:55:38;57.10;;;25.63;;
69047;SDS011;56119;50.118;8.642;2022-12-13T02:58:04;55.23;;;26.20;;
69047;SDS011;56119;50.118;8.642;2022-12-13T03:00:34;64.73;;;25.93;;
69047;SDS011;56119;50.118;8.642;2022-12-13T03:11:22;57.73;;;24.93;;
69047;SDS011;56119;50.118;8.642;2022-12-13T03:13:53;56.93;;;25.20;;
69047;SDS011;56119;50.118;8.642;2022-12-13T03:16:37;62.50;;;26.20;;
69047;SDS011;56119;50.118;8.642;2022-12-13T03:19:05;54.27;;;24.47;;
69047;SDS011;56119;50.118;8.642;2022-12-13T03:21:39;54.83;;;24.03;;
69047;SDS011;56119;50.118;8.642;2022-12-13T03:24:05;60.33;;;25.97;;
69047;SDS011;56119;50.118;8.642;2022-12-13T03:26:31;55.83;;;23.83;;
69047;SDS011;56119;50.118;8.642;2022-12-13T03:28:57;52.17;;;24.13;;
69047;SDS011;56119;50.118;8.642;2022-12-13T03:31:23;58.87;;;23.50;;
69047;SDS011;56119;50.118;8.642;2022-12-13T03:33:49;55.43;;;23.67;;
69047;SDS011;56119;50.118;8.642;2022-12-13T03:36:15;57.53;;;24.47;;
69047;SDS011;56119;50.118;8.642;2022-12-13T03:38:43;59.70;;;25.67;;
69047;SDS011;56119;50.118;8.642;2022-12-13T03:41:13;48.60;;;23.17;;
69047;SDS011;56119;50.118;8.642;2022-12-13T03:43:39;57.40;;;23.57;;
69047;SDS011;56119;50.118;8.642;2022-12-13T03:46:06;60.37;;;24.10;;
69047;SDS011;56119;50.118;8.642;2022-12-13T03:48:32;56.87;;;24.63;;
69047;SDS011;56119;50.118;8.642;2022-12-13T03:50:58;62.80;;;24.50;;
69047;SDS011;56119;50.118;8.642;2022-12-13T03:53:24;53.73;;;22.93;;
69047;SDS011;56119;50.118;8.642;2022-12-13T03:55:51;59.10;;;23.70;;
69047;SDS011;56119;50.118;8.642;2022-12-13T03:58:17;58.07;;;23.80;;
69047;SDS011;56119;50.118;8.642;2022-12-13T04:00:43;54.30;;;23.47;;
69047;SDS011;56119;50.118;8.642;2022-12-13T04:03:09;53.13;;;22.20;;
69047;SDS011;56119;50.118;8.642;2022-12-13T04:05:35;59.47;;;23.97;;
69047;SDS011;56119;50.118;8.642;2022-12-13T04:08:01;54.10;;;23.30;;
69047;SDS011;56119;50.118;8.642;2022-12-13T04:10:27;58.77;;;23.80;;
69047;SDS011;56119;50.118;8.642;2022-12-13T04:12:53;58.37;;;24.17;;
69047;SDS011;56119;50.118;8.642;2022-12-13T04:15:37;62.10;;;23.97;;
69047;SDS011;56119;50.118;8.642;2022-12-13T04:18:04;57.13;;;24.47;;
69047;SDS011;56119;50.118;8.642;2022-12-13T04:20:29;54.33;;;22.33;;
69047;SDS011;56119;50.118;8.642;2022-12-13T04:22:56;59.50;;;23.33;;
69047;SDS011;56119;50.118;8.642;2022-12-13T04:25:22;55.03;;;23.13;;
69047;SDS011;56119;50.118;8.642;2022-12-13T04:27:48;64.70;;;26.40;;
69047;SDS011;56119;50.118;8.642;2022-12-13T04:30:14;54.37;;;23.53;;
69047;SDS011;56119;50.118;8.642;2022-12-13T04:32:39;56.50;;;22.57;;
69047;SDS011;56119;50.118;8.642;2022-12-13T04:35:06;54.97;;;24.07;;
69047;SDS011;56119;50.118;8.642;2022-12-13T04:37:32;55.70;;;22.00;;
69047;SDS011;56119;50.118;8.642;2022-12-13T04:39:58;59.73;;;23.17;;
69047;SDS011;56119;50.118;8.642;2022-12-13T04:42:24;55.93;;;23.87;;
69047;SDS011;56119;50.118;8.642;2022-12-13T04:44:50;55.50;;;22.83;;
69047;SDS011;56119;50.118;8.642;2022-12-13T04:47:16;55.10;;;22.57;;
69047;SDS011;56119;50.118;8.642;2022-12-13T04:49:42;55.20;;;23.43;;
69047;SDS011;56119;50.118;8.642;2022-12-13T04:52:08;58.63;;;24.67;;
69047;SDS011;56119;50.118;8.642;2022-12-13T04:54:34;61.80;;;24.00;;
69047;SDS011;56119;50.118;8.642;2022-12-13T04:57:00;62.90;;;24.03;;
69047;SDS011;56119;50.118;8.642;2022-12-13T04:59:26;62.97;;;24.63;;
69047;SDS011;56119;50.118;8.642;2022-12-13T05:01:52;57.20;;;23.27;;
69047;SDS011;56119;50.118;8.642;2022-12-13T05:04:18;55.63;;;23.60;;
69047;SDS011;56119;50.118;8.642;2022-12-13T05:06:44;63.17;;;24.30;;
69047;SDS011;56119;50.118;8.642;2022-12-13T05:09:10;59.07;;;23.90;;
69047;SDS011;56119;50.118;8.642;2022-12-13T05:11:36;58.50;;;22.60;;
69047;SDS011;56119;50.118;8.642;2022-12-13T05:14:02;64.17;;;23.53;;
69047;SDS011;56119;50.118;8.642;2022-12-13T05:16:28;59.37;;;24.43;;
69047;SDS011;56119;50.118;8.642;2022-12-13T05:18:54;55.23;;;23.23;;
69047;SDS011;56119;50.118;8.642;2022-12-13T05:21:20;57.73;;;24.13;;
69047;SDS011;56119;50.118;8.642;2022-12-13T05:23:46;59.57;;;25.00;;
69047;SDS011;56119;50.118;8.642;2022-12-13T05:26:12;61.30;;;25.03;;
69047;SDS011;56119;50.118;8.642;2022-12-13T05:28:37;56.70;;;22.53;;
69047;SDS011;56119;50.118;8.642;2022-12-13T05:31:05;67.10;;;25.30;;
69047;SDS011;56119;50.118;8.642;2022-12-13T05:33:31;61.73;;;23.60;;
69047;SDS011;56119;50.118;8.642;2022-12-13T05:35:57;63.13;;;24.60;;
69047;SDS011;56119;50.118;8.642;2022-12-13T05:38:23;68.30;;;24.03;;
69047;SDS011;56119;50.118;8.642;2022-12-13T05:40:49;57.37;;;25.13;;
69047;SDS011;56119;50.118;8.642;2022-12-13T05:43:15;62.97;;;26.20;;
69047;SDS011;56119;50.118;8.642;2022-12-13T05:45:41;65.83;;;25.03;;
69047;SDS011;56119;50.118;8.642;2022-12-13T05:48:07;55.60;;;24.90;;
69047;SDS011;56119;50.118;8.642;2022-12-13T05:50:34;66.77;;;26.37;;
69047;SDS011;56119;50.118;8.642;2022-12-13T05:53:02;66.73;;;24.97;;
69047;SDS011;56119;50.118;8.642;2022-12-13T05:55:28;59.57;;;24.90;;
69047;SDS011;56119;50.118;8.642;2022-12-13T05:57:54;61.30;;;23.53;;
69047;SDS011;56119;50.118;8.642;2022-12-13T06:00:20;57.20;;;23.47;;
69047;SDS011;56119;50.118;8.642;2022-12-13T06:02:46;58.70;;;25.17;;
69047;SDS011;56119;50.118;8.642;2022-12-13T06:05:12;57.83;;;23.30;;
69047;SDS011;56119;50.118;8.642;2022-12-13T06:07:38;58.90;;;25.10;;
69047;SDS011;56119;50.118;8.642;2022-12-13T06:10:04;54.80;;;23.13;;
69047;SDS011;56119;50.118;8.642;2022-12-13T06:12:30;57.43;;;23.60;;
69047;SDS011;56119;50.118;8.642;2022-12-13T06:14:56;60.57;;;24.23;;
69047;SDS011;56119;50.118;8.642;2022-12-13T06:17:22;53.23;;;22.47;;
69047;SDS011;56119;50.118;8.642;2022-12-13T06:19:49;64.33;;;24.07;;
69047;SDS011;56119;50.118;8.642;2022-12-13T06:22:16;56.10;;;23.67;;
69047;SDS011;56119;50.118;8.642;2022-12-13T06:24:42;64.53;;;24.47;;
69047;SDS011;56119;50.118;8.642;2022-12-13T06:27:08;56.53;;;23.43;;
69047;SDS011;56119;50.118;8.642;2022-12-13T06:29:34;56.67;;;23.37;;
69047;SDS011;56119;50.118;8.642;2022-12-13T06:32:00;54.30;;;22.77;;
69047;SDS011;56119;50.118;8.642;2022-12-13T06:34:27;64.13;;;24.70;;
69047;SDS011;56119;50.118;8.642;2022-12-13T06:36:53;56.97;;;23.97;;
69047;SDS011;56119;50.118;8.642;2022-12-13T06:39:19;54.87;;;23.07;;
69047;SDS011;56119;50.118;8.642;2022-12-13T06:41:45;54.00;;;24.00;;
69047;SDS011;56119;50.118;8.642;2022-12-13T06:44:11;56.03;;;23.43;;
69047;SDS011;56119;50.118;8.642;2022-12-13T06:46:37;56.67;;;24.93;;
69047;SDS011;56119;50.118;8.642;2022-12-13T06:49:03;58.47;;;24.20;;
69047;SDS011;56119;50.118;8.642;2022-12-13T06:51:29;58.37;;;24.90;;
69047;SDS011;56119;50.118;8.642;2022-12-13T06:53:55;53.87;;;23.20;;
69047;SDS011;56119;50.118;8.642;2022-12-13T06:56:21;50.77;;;23.70;;
69047;SDS011;56119;50.118;8.642;2022-12-13T06:58:47;56.40;;;24.23;;
69047;SDS011;56119;50.118;8.642;2022-12-13T07:01:14;51.00;;;23.40;;
69047;SDS011;56119;50.118;8.642;2022-12-13T07:03:41;58.57;;;23.37;;
69047;SDS011;56119;50.118;8.642;2022-12-13T07:06:17;56.87;;;23.47;;
69047;SDS011;56119;50.118;8.642;2022-12-13T07:08:43;54.63;;;22.50;;
69047;SDS011;56119;50.118;8.642;2022-12-13T07:11:13;53.67;;;23.33;;
69047;SDS011;56119;50.118;8.642;2022-12-13T07:13:39;54.33;;;24.17;;
69047;SDS011;56119;50.118;8.642;2022-12-13T07:16:05;57.37;;;24.93;;
69047;SDS011;56119;50.118;8.642;2022-12-13T07:18:31;50.80;;;23.40;;
69047;SDS011;56119;50.118;8.642;2022-12-13T07:20:57;48.03;;;21.83;;
69047;SDS011;56119;50.118;8.642;2022-12-13T07:23:23;51.73;;;23.43;;
69047;SDS011;56119;50.118;8.642;2022-12-13T07:25:52;51.50;;;21.43;;
69047;SDS011;56119;50.118;8.642;2022-12-13T07:28:19;57.23;;;23.03;;
69047;SDS011;56119;50.118;8.642;2022-12-13T07:30:45;52.43;;;23.00;;
69047;SDS011;56119;50.118;8.642;2022-12-13T07:33:12;53.13;;;22.20;;
69047;SDS011;56119;50.118;8.642;2022-12-13T07:35:38;54.47;;;23.67;;
69047;SDS011;56119;50.118;8.642;2022-12-13T07:38:07;53.90;;;23.13;;
69047;SDS011;56119;50.118;8.642;2022-12-13T07:40:34;55.53;;;22.50;;
69047;SDS011;56119;50.118;8.642;2022-12-13T07:43:00;57.97;;;23.57;;
69047;SDS011;56119;50.118;8.642;2022-12-13T07:45:26;51.67;;;23.27;;
69047;SDS011;56119;50.118;8.642;2022-12-13T07:47:52;52.17;;;23.93;;
69047;SDS011;56119;50.118;8.642;2022-12-13T07:50:18;57.07;;;22.33;;
69047;SDS011;56119;50.118;8.642;2022-12-13T07:52:48;48.40;;;21.40;;
69047;SDS011;56119;50.118;8.642;2022-12-13T07:55:14;53.63;;;22.20;;
69047;SDS011;56119;50.118;8.642;2022-12-13T07:57:41;47.20;;;20.93;;
69047;SDS011;56119;50.118;8.642;2022-12-13T08:00:07;59.87;;;23.30;;
69047;SDS011;56119;50.118;8.642;2022-12-13T08:02:33;54.63;;;23.67;;
69047;SDS011;56119;50.118;8.642;2022-12-13T08:04:59;55.47;;;24.80;;
69047;SDS011;56119;50.118;8.642;2022-12-13T08:07:25;50.70;;;23.37;;
69047;SDS011;56119;50.118;8.642;2022-12-13T08:09:51;56.47;;;24.57;;
69047;SDS011;56119;50.118;8.642;2022-12-13T08:12:19;56.92;;;26.88;;
69047;SDS011;56119;50.118;8.642;2022-12-13T08:14:45;55.57;;;24.77;;
69047;SDS011;56119;50.118;8.642;2022-12-13T08:17:11;53.47;;;22.50;;
69047;SDS011;56119;50.118;8.642;2022-12-13T08:19:37;47.63;;;20.60;;
69047;SDS011;56119;50.118;8.642;2022-12-13T08:22:03;45.73;;;21.80;;
69047;SDS011;56119;50.118;8.642;2022-12-13T08:24:29;48.30;;;21.40;;
69047;SDS011;56119;50.118;8.642;2022-12-13T08:26:59;53.80;;;22.30;;
69047;SDS011;56119;50.118;8.642;2022-12-13T08:29:25;50.17;;;22.10;;
69047;SDS011;56119;50.118;8.642;2022-12-13T08:31:51;50.27;;;22.43;;
69047;SDS011;56119;50.118;8.642;2022-12-13T08:34:17;52.40;;;24.40;;
69047;SDS011;56119;50.118;8.642;2022-12-13T08:36:43;51.03;;;22.40;;
69047;SDS011;56119;50.118;8.642;2022-12-13T08:39:09;51.13;;;22.47;;
69047;SDS011;56119;50.118;8.642;2022-12-13T08:41:35;56.17;;;23.50;;
69047;SDS011;56119;50.118;8.642;2022-12-13T08:44:01;47.53;;;21.10;;
69047;SDS011;56119;50.118;8.642;2022-12-13T08:46:27;47.83;;;21.13;;
69047;SDS011;56119;50.118;8.642;2022-12-13T08:48:53;50.57;;;22.93;;
69047;SDS011;56119;50.118;8.642;2022-12-13T08:51:19;47.93;;;21.70;;
69047;SDS011;56119;50.118;8.642;2022-12-13T08:53:49;51.97;;;22.00;;
69047;SDS011;56119;50.118;8.642;2022-12-13T08:56:15;51.23;;;22.03;;
69047;SDS011;56119;50.118;8.642;2022-12-13T08:58:43;49.57;;;22.57;;
69047;SDS011;56119;50.118;8.642;2022-12-13T09:01:09;46.63;;;21.20;;
69047;SDS011;56119;50.118;8.642;2022-12-13T09:03:35;55.33;;;22.10;;
69047;SDS011;56119;50.118;8.642;2022-12-13T09:06:05;48.90;;;22.07;;
69047;SDS011;56119;50.118;8.642;2022-12-13T09:08:31;40.77;;;19.37;;
69047;SDS011;56119;50.118;8.642;2022-12-13T09:10:58;46.30;;;20.30;;
69047;SDS011;56119;50.118;8.642;2022-12-13T09:13:24;43.73;;;20.77;;
69047;SDS011;56119;50.118;8.642;2022-12-13T09:15:50;51.20;;;21.43;;
69047;SDS011;56119;50.118;8.642;2022-12-13T09:18:16;45.50;;;21.97;;
69047;SDS011;56119;50.118;8.642;2022-12-13T09:20:42;49.27;;;22.30;;
69047;SDS011;56119;50.118;8.642;2022-12-13T09:23:08;46.47;;;20.53;;
69047;SDS011;56119;50.118;8.642;2022-12-13T09:25:34;44.30;;;21.10;;
69047;SDS011;56119;50.118;8.642;2022-12-13T09:28:00;48.27;;;21.90;;
69047;SDS011;56119;50.118;8.642;2022-12-13T09:30:26;44.87;;;20.33;;
69047;SDS011;56119;50.118;8.642;2022-12-13T09:32:53;46.77;;;21.00;;
69047;SDS011;56119;50.118;8.642;2022-12-13T09:35:19;46.67;;;21.47;;
69047;SDS011;56119;50.118;8.642;2022-12-13T09:37:45;45.73;;;20.90;;
69047;SDS011;56119;50.118;8.642;2022-12-13T09:40:15;45.43;;;20.10;;
69047;SDS011;56119;50.118;8.642;2022-12-13T09:42:43;40.00;;;19.33;;
69047;SDS011;56119;50.118;8.642;2022-12-13T09:45:12;41.13;;;19.53;;
69047;SDS011;56119;50.118;8.642;2022-12-13T09:47:39;38.27;;;18.60;;
69047;SDS011;56119;50.118;8.642;2022-12-13T09:50:28;43.97;;;21.23;;
69047;SDS011;56119;50.118;8.642;2022-12-13T09:52:52;38.67;;;19.77;;
69047;SDS011;56119;50.118;8.642;2022-12-13T09:57:45;43.30;;;19.80;;
69047;SDS011;56119;50.118;8.642;2022-12-13T10:00:12;41.63;;;19.07;;
69047;SDS011;56119;50.118;8.642;2022-12-13T10:02:44;41.23;;;21.13;;
69047;SDS011;56119;50.118;8.642;2022-12-13T10:07:39;40.20;;;19.17;;
69047;SDS011;56119;50.118;8.642;2022-12-13T10:10:05;38.27;;;18.90;;
69047;SDS011;56119;50.118;8.642;2022-12-13T10:12:32;43.43;;;20.30;;
69047;SDS011;56119;50.118;8.642;2022-12-13T10:14:58;39.13;;;19.70;;
69047;SDS011;56119;50.118;8.642;2022-12-13T10:17:26;37.60;;;19.60;;
69047;SDS011;56119;50.118;8.642;2022-12-13T10:19:56;36.10;;;18.80;;
69047;SDS011;56119;50.118;8.642;2022-12-13T10:22:22;39.03;;;19.47;;
69047;SDS011;56119;50.118;8.642;2022-12-13T10:24:58;40.87;;;19.70;;
69047;SDS011;56119;50.118;8.642;2022-12-13T10:32:33;37.70;;;19.37;;
69047;SDS011;56119;50.118;8.642;2022-12-13T10:38:20;44.73;;;20.67;;
69047;SDS011;56119;50.118;8.642;2022-12-13T10:40:47;46.03;;;21.00;;
69047;SDS011;56119;50.118;8.642;2022-12-13T10:45:43;37.83;;;20.83;;
69047;SDS011;56119;50.118;8.642;2022-12-13T10:50:57;34.97;;;18.53;;
69047;SDS011;56119;50.118;8.642;2022-12-13T10:53:24;35.23;;;19.07;;
69047;SDS011;56119;50.118;8.642;2022-12-13T10:55:53;41.90;;;20.13;;
69047;SDS011;56119;50.118;8.642;2022-12-13T10:58:20;40.30;;;19.83;;
69047;SDS011;56119;50.118;8.642;2022-12-13T11:00:46;35.47;;;18.43;;
69047;SDS011;56119;50.118;8.642;2022-12-13T11:03:29;31.73;;;17.30;;
69047;SDS011;56119;50.118;8.642;2022-12-13T11:06:08;38.17;;;19.00;;
69047;SDS011;56119;50.118;8.642;2022-12-13T11:08:36;32.50;;;18.53;;
69047;SDS011;56119;50.118;8.642;2022-12-13T11:11:03;33.03;;;18.40;;
69047;SDS011;56119;50.118;8.642;2022-12-13T11:13:32;32.87;;;18.60;;
69047;SDS011;56119;50.118;8.642;2022-12-13T11:16:00;35.90;;;19.27;;
69047;SDS011;56119;50.118;8.642;2022-12-13T11:18:27;34.43;;;18.47;;
69047;SDS011;56119;50.118;8.642;2022-12-13T11:20:56;33.33;;;19.10;;
69047;SDS011;56119;50.118;8.642;2022-12-13T11:23:27;33.60;;;18.50;;
69047;SDS011;56119;50.118;8.642;2022-12-13T11:25:55;36.10;;;19.73;;
69047;SDS011;56119;50.118;8.642;2022-12-13T11:28:26;33.63;;;18.27;;
69047;SDS011;56119;50.118;8.642;2022-12-13T11:41:08;33.57;;;18.90;;
69047;SDS011;56119;50.118;8.642;2022-12-13T11:43:44;35.13;;;19.60;;
69047;SDS011;56119;50.118;8.642;2022-12-13T11:46:15;32.13;;;18.07;;
69047;SDS011;56119;50.118;8.642;2022-12-13T11:51:54;32.80;;;16.50;;
69047;SDS011;56119;50.118;8.642;2022-12-13T11:54:23;31.20;;;17.70;;
69047;SDS011;56119;50.118;8.642;2022-12-13T11:56:53;32.67;;;18.23;;
69047;SDS011;56119;50.118;8.642;2022-12-13T12:07:14;34.20;;;18.73;;
69047;SDS011;56119;50.118;8.642;2022-12-13T12:09:41;33.13;;;18.23;;
69047;SDS011;56119;50.118;8.642;2022-12-13T12:12:11;34.17;;;18.47;;
69047;SDS011;56119;50.118;8.642;2022-12-13T12:14:47;32.70;;;17.73;;
69047;SDS011;56119;50.118;8.642;2022-12-13T12:17:17;32.00;;;17.03;;
69047;SDS011;56119;50.118;8.642;2022-12-13T12:19:48;29.93;;;16.40;;
69047;SDS011;56119;50.118;8.642;2022-12-13T12:27:43;34.90;;;18.80;;
69047;SDS011;56119;50.118;8.642;2022-12-13T12:40:40;32.50;;;16.80;;
69047;SDS011;56119;50.118;8.642;2022-12-13T12:45:48;32.83;;;17.00;;
69047;SDS011;56119;50.118;8.642;2022-12-13T12:48:40;27.83;;;16.50;;
69047;SDS011;56119;50.118;8.642;2022-12-13T12:51:09;31.27;;;16.30;;
69047;SDS011;56119;50.118;8.642;2022-12-13T12:53:44;30.03;;;17.27;;
69047;SDS011;56119;50.118;8.642;2022-12-13T13:03:55;35.17;;;18.47;;
69047;SDS011;56119;50.118;8.642;2022-12-13T13:06:26;34.83;;;18.43;;
69047;SDS011;56119;50.118;8.642;2022-12-13T13:08:58;33.90;;;18.30;;
69047;SDS011;56119;50.118;8.642;2022-12-13T13:11:25;33.27;;;17.63;;
69047;SDS011;56119;50.118;8.642;2022-12-13T13:16:32;35.27;;;18.60;;
69047;SDS011;56119;50.118;8.642;2022-12-13T13:18:59;34.20;;;18.80;;
69047;SDS011;56119;50.118;8.642;2022-12-13T13:26:31;36.27;;;18.50;;
69047;SDS011;56119;50.118;8.642;2022-12-13T13:31:58;35.60;;;19.33;;
69047;SDS011;56119;50.118;8.642;2022-12-13T13:34:29;29.30;;;17.03;;
69047;SDS011;56119;50.118;8.642;2022-12-13T13:36:56;36.40;;;18.30;;
69047;SDS011;56119;50.118;8.642;2022-12-13T13:44:34;26.80;;;16.33;;
69047;SDS011;56119;50.118;8.642;2022-12-13T14:00:23;32.67;;;17.50;;
69047;SDS011;56119;50.118;8.642;2022-12-13T14:05:52;34.33;;;18.83;;
69047;SDS011;56119;50.118;8.642;2022-12-13T14:13:44;35.53;;;19.37;;
69047;SDS011;56119;50.118;8.642;2022-12-13T14:19:06;33.13;;;18.13;;
69047;SDS011;56119;50.118;8.642;2022-12-13T14:29:20;36.00;;;19.30;;
69047;SDS011;56119;50.118;8.642;2022-12-13T14:31:48;34.40;;;18.27;;
69047;SDS011;56119;50.118;8.642;2022-12-13T14:34:35;37.93;;;19.03;;
69047;SDS011;56119;50.118;8.642;2022-12-13T14:37:01;37.17;;;18.77;;
69047;SDS011;56119;50.118;8.642;2022-12-13T14:39:28;34.37;;;18.67;;
69047;SDS011;56119;50.118;8.642;2022-12-13T14:41:58;31.87;;;17.57;;
69047;SDS011;56119;50.118;8.642;2022-12-13T14:44:28;36.43;;;18.87;;
69047;SDS011;56119;50.118;8.642;2022-12-13T14:49:21;38.10;;;19.70;;
69047;SDS011;56119;50.118;8.642;2022-12-13T14:51:48;36.23;;;18.10;;
69047;SDS011;56119;50.118;8.642;2022-12-13T14:54:19;37.13;;;19.07;;
69047;SDS011;56119;50.118;8.642;2022-12-13T14:56:56;37.00;;;19.50;;
69047;SDS011;56119;50.118;8.642;2022-12-13T14:59:23;36.53;;;20.07;;
69047;SDS011;56119;50.118;8.642;2022-12-13T15:01:53;36.07;;;19.37;;
69047;SDS011;56119;50.118;8.642;2022-12-13T15:06:45;37.83;;;18.93;;
69047;SDS011;56119;50.118;8.642;2022-12-13T15:09:12;35.77;;;18.43;;
69047;SDS011;56119;50.118;8.642;2022-12-13T15:11:38;33.67;;;18.57;;
69047;SDS011;56119;50.118;8.642;2022-12-13T15:14:04;35.43;;;19.10;;
69047;SDS011;56119;50.118;8.642;2022-12-13T15:16:31;35.97;;;19.77;;
69047;SDS011;56119;50.118;8.642;2022-12-13T15:21:38;40.07;;;18.53;;
69047;SDS011;56119;50.118;8.642;2022-12-13T15:24:04;35.53;;;19.30;;
69047;SDS011;56119;50.118;8.642;2022-12-13T15:26:31;38.63;;;18.97;;
69047;SDS011;56119;50.118;8.642;2022-12-13T15:29:01;31.80;;;17.90;;
69047;SDS011;56119;50.118;8.642;2022-12-13T15:31:30;36.47;;;19.20;;
69047;SDS011;56119;50.118;8.642;2022-12-13T15:36:44;38.20;;;19.73;;
69047;SDS011;56119;50.118;8.642;2022-12-13T15:39:10;32.97;;;18.73;;
69047;SDS011;56119;50.118;8.642;2022-12-13T15:41:40;36.43;;;20.40;;
69047;SDS011;56119;50.118;8.642;2022-12-13T15:44:28;38.70;;;19.17;;
69047;SDS011;56119;50.118;8.642;2022-12-13T15:46:56;35.00;;;18.67;;
69047;SDS011;56119;50.118;8.642;2022-12-13T15:49:30;41.03;;;20.10;;
69047;SDS011;56119;50.118;8.642;2022-12-13T15:51:58;36.97;;;20.77;;
69047;SDS011;56119;50.118;8.642;2022-12-13T15:54:25;32.37;;;18.30;;
69047;SDS011;56119;50.118;8.642;2022-12-13T15:59:26;36.90;;;19.30;;
69047;SDS011;56119;50.118;8.642;2022-12-13T16:01:52;40.43;;;20.13;;
69047;SDS011;56119;50.118;8.642;2022-12-13T16:04:22;38.27;;;20.23;;
69047;SDS011;56119;50.118;8.642;2022-12-13T16:06:49;44.47;;;20.13;;
69047;SDS011;56119;50.118;8.642;2022-12-13T16:09:17;40.57;;;20.37;;
69047;SDS011;56119;50.118;8.642;2022-12-13T16:11:47;39.43;;;20.17;;
69047;SDS011;56119;50.118;8.642;2022-12-13T16:17:40;38.10;;;19.73;;
69047;SDS011;56119;50.118;8.642;2022-12-13T16:19:41;38.40;;;19.90;;
69047;SDS011;56119;50.118;8.642;2022-12-13T16:22:08;40.03;;;20.23;;
69047;SDS011;56119;50.118;8.642;2022-12-13T16:24:36;38.37;;;20.47;;
69047;SDS011;56119;50.118;8.642;2022-12-13T16:27:02;39.87;;;21.47;;
69047;SDS011;56119;50.118;8.642;2022-12-13T16:29:28;41.70;;;22.53;;
69047;SDS011;56119;50.118;8.642;2022-12-13T16:31:54;44.10;;;21.47;;
69047;SDS011;56119;50.118;8.642;2022-12-13T16:34:23;43.57;;;20.70;;
69047;SDS011;56119;50.118;8.642;2022-12-13T16:36:49;36.50;;;18.83;;
69047;SDS011;56119;50.118;8.642;2022-12-13T16:39:16;41.00;;;20.57;;
69047;SDS011;56119;50.118;8.642;2022-12-13T16:41:43;40.67;;;19.87;;
69047;SDS011;56119;50.118;8.642;2022-12-13T16:44:16;39.23;;;20.70;;
69047;SDS011;56119;50.118;8.642;2022-12-13T16:46:43;39.20;;;21.00;;
69047;SDS011;56119;50.118;8.642;2022-12-13T16:49:15;44.63;;;20.90;;
69047;SDS011;56119;50.118;8.642;2022-12-13T16:51:42;43.70;;;21.13;;
69047;SDS011;56119;50.118;8.642;2022-12-13T16:54:08;40.60;;;20.63;;
69047;SDS011;56119;50.118;8.642;2022-12-13T16:56:34;41.30;;;20.83;;
69047;SDS011;56119;50.118;8.642;2022-12-13T16:59:00;39.93;;;19.80;;
69047;SDS011;56119;50.118;8.642;2022-12-13T17:01:26;37.77;;;19.27;;
69047;SDS011;56119;50.118;8.642;2022-12-13T17:03:52;36.53;;;19.93;;
69047;SDS011;56119;50.118;8.642;2022-12-13T17:06:20;37.53;;;19.90;;
69047;SDS011;56119;50.118;8.642;2022-12-13T17:08:47;35.87;;;18.97;;